Time;durP1;ratioP1;P1;durP2;ratioP2;P2;SDS_P1;SDS_P2;PMS_P1;PMS_P2;Temp;Humidity;BMP_temperature;BMP_pressure;BME280_temperature;BME280_humidity;BME280_pressure;Samples;Min_cycle;Max_cycle;Signal;HPM_P1;HPM_P2
2023/12/15 00:01:45;;;;;;;6.05;4.78;;;;;;;;;;4992782;28;20093;-75
2023/12/15 00:04:11;;;;;;;6.90;5.53;;;;;;;;;;5007202;28;20124;-76
2023/12/15 00:06:37;;;;;;;6.97;5.85;;;;;;;;;;4991011;28;20023;-76
2023/12/15 00:09:04;;;;;;;8.10;6.20;;;;;;;;;;4990176;28;20022;-77
2023/12/15 00:11:30;;;;;;;7.90;5.88;;;;;;;;;;4991943;28;20018;-76
2023/12/15 00:13:56;;;;;;;8.85;6.18;;;;;;;;;;4992243;28;20019;-77
2023/12/15 00:16:22;;;;;;;7.63;6.25;;;;;;;;;;4992056;28;20026;-76
2023/12/15 00:18:48;;;;;;;9.10;6.30;;;;;;;;;;4992718;28;20085;-75
2023/12/15 00:21:14;;;;;;;6.80;5.93;;;;;;;;;;4992594;28;20041;-76
2023/12/15 00:23:40;;;;;;;8.60;5.63;;;;;;;;;;4992326;28;20022;-76
2023/12/15 00:26:08;;;;;;;9.15;6.55;;;;;;;;;;4990397;28;20095;-76
2023/12/15 00:28:34;;;;;;;9.90;6.55;;;;;;;;;;4979228;28;20058;-76
2023/12/15 00:31:00;;;;;;;9.23;6.60;;;;;;;;;;4991578;28;20026;-76
2023/12/15 00:33:26;;;;;;;9.77;6.88;;;;;;;;;;4993712;28;20473;-76
2023/12/15 00:35:52;;;;;;;8.65;6.45;;;;;;;;;;4991318;28;20054;-77
2023/12/15 00:38:18;;;;;;;11.00;7.50;;;;;;;;;;4989979;28;20156;-76
2023/12/15 00:40:44;;;;;;;8.77;6.30;;;;;;;;;;4988118;28;20034;-76
2023/12/15 00:43:11;;;;;;;8.05;6.20;;;;;;;;;;4992898;28;20082;-77
2023/12/15 00:45:37;;;;;;;7.15;5.75;;;;;;;;;;4994640;28;20046;-75
2023/12/15 00:48:03;;;;;;;10.07;6.47;;;;;;;;;;4994899;28;20022;-76
2023/12/15 00:50:29;;;;;;;9.77;7.72;;;;;;;;;;4995089;28;20050;-76
2023/12/15 00:52:57;;;;;;;10.32;7.05;;;;;;;;;;4991070;28;20041;-75
2023/12/15 00:55:23;;;;;;;10.77;7.22;;;;;;;;;;5008053;28;20030;-76
2023/12/15 00:57:49;;;;;;;9.68;7.30;;;;;;;;;;4994353;28;20117;-77
2023/12/15 01:00:15;;;;;;;9.43;7.38;;;;;;;;;;4997135;28;20038;-77
2023/12/15 01:02:41;;;;;;;9.75;7.25;;;;;;;;;;4993847;28;20073;-76
2023/12/15 01:05:08;;;;;;;10.90;7.82;;;;;;;;;;4994257;28;20345;-77
2023/12/15 01:07:34;;;;;;;12.82;8.93;;;;;;;;;;5008821;28;20118;-77
2023/12/15 01:10:00;;;;;;;12.20;8.23;;;;;;;;;;4994841;28;20150;-77
2023/12/15 01:12:26;;;;;;;11.73;8.70;;;;;;;;;;4993326;28;20018;-76
2023/12/15 01:14:52;;;;;;;12.85;9.23;;;;;;;;;;4993595;28;20018;-77
2023/12/15 01:17:18;;;;;;;13.02;9.13;;;;;;;;;;4992832;28;20030;-77
2023/12/15 01:19:44;;;;;;;14.18;10.23;;;;;;;;;;4992828;28;20022;-77
2023/12/15 01:22:10;;;;;;;13.00;9.18;;;;;;;;;;4992538;28;20494;-77
2023/12/15 01:24:37;;;;;;;12.93;9.60;;;;;;;;;;4994303;28;20033;-76
2023/12/15 01:27:03;;;;;;;14.95;10.77;;;;;;;;;;4993425;28;20027;-76
2023/12/15 01:29:29;;;;;;;14.45;10.70;;;;;;;;;;5009618;28;20097;-76
2023/12/15 01:31:55;;;;;;;18.60;10.70;;;;;;;;;;4993413;28;20034;-76
2023/12/15 01:34:21;;;;;;;15.75;10.38;;;;;;;;;;4993633;28;20030;-76
2023/12/15 01:36:47;;;;;;;13.75;10.45;;;;;;;;;;4994651;28;20162;-76
2023/12/15 01:39:13;;;;;;;15.02;10.23;;;;;;;;;;4993487;28;20505;-76
2023/12/15 01:41:39;;;;;;;16.95;11.45;;;;;;;;;;4992582;28;20045;-77
2023/12/15 01:44:05;;;;;;;15.05;10.75;;;;;;;;;;4998492;28;20082;-76
2023/12/15 01:46:31;;;;;;;16.58;11.70;;;;;;;;;;4995544;28;20393;-76
2023/12/15 01:48:58;;;;;;;18.40;12.13;;;;;;;;;;4995917;28;20037;-76
2023/12/15 01:51:24;;;;;;;12.57;9.60;;;;;;;;;;4995449;28;20470;-77
2023/12/15 01:53:50;;;;;;;12.20;8.43;;;;;;;;;;5010954;28;20054;-76
2023/12/15 01:56:16;;;;;;;9.52;7.05;;;;;;;;;;4995329;28;20085;-76
2023/12/15 01:58:42;;;;;;;8.82;6.45;;;;;;;;;;4995327;28;20436;-76
2023/12/15 02:01:09;;;;;;;7.80;5.68;;;;;;;;;;4995049;28;20081;-77
2023/12/15 02:03:35;;;;;;;6.70;5.13;;;;;;;;;;4995128;28;20026;-76
2023/12/15 02:06:01;;;;;;;6.47;4.53;;;;;;;;;;4994999;28;20418;-76
2023/12/15 02:08:27;;;;;;;5.78;4.15;;;;;;;;;;4995291;28;20032;-76
2023/12/15 02:10:53;;;;;;;6.40;4.30;;;;;;;;;;4995973;28;20501;-76
2023/12/15 02:13:19;;;;;;;6.57;4.53;;;;;;;;;;4996832;28;20088;-76
2023/12/15 02:15:45;;;;;;;5.10;3.78;;;;;;;;;;4997704;28;20019;-76
2023/12/15 02:18:12;;;;;;;5.28;3.95;;;;;;;;;;5010870;28;20026;-77
2023/12/15 02:20:38;;;;;;;5.57;3.97;;;;;;;;;;4996219;28;20081;-76
2023/12/15 02:23:04;;;;;;;4.65;3.55;;;;;;;;;;4996839;28;20100;-75
2023/12/15 02:25:30;;;;;;;4.78;3.80;;;;;;;;;;4995769;28;20038;-76
2023/12/15 02:27:59;;;;;;;4.93;3.63;;;;;;;;;;4997601;28;20030;-77
2023/12/15 02:30:25;;;;;;;5.85;3.78;;;;;;;;;;4998080;28;20026;-78
2023/12/15 02:32:51;;;;;;;5.82;4.53;;;;;;;;;;4998345;28;20465;-77
2023/12/15 02:35:17;;;;;;;6.47;4.90;;;;;;;;;;5012724;28;20034;-77
2023/12/15 02:37:43;;;;;;;5.80;4.68;;;;;;;;;;4997711;28;20022;-77
2023/12/15 02:40:10;;;;;;;7.85;4.40;;;;;;;;;;4999290;28;20077;-77
2023/12/15 02:42:36;;;;;;;8.40;5.63;;;;;;;;;;4998840;28;20045;-77
2023/12/15 02:45:02;;;;;;;5.75;4.53;;;;;;;;;;5004870;28;20026;-77
2023/12/15 02:47:28;;;;;;;6.88;5.13;;;;;;;;;;4995600;28;20033;-76
2023/12/15 02:49:58;;;;;;;7.25;4.47;;;;;;;;;;4996287;28;20093;-76
2023/12/15 02:52:24;;;;;;;7.40;5.20;;;;;;;;;;4995786;28;20026;-77
2023/12/15 02:54:50;;;;;;;7.15;4.93;;;;;;;;;;4995049;28;20018;-76
2023/12/15 02:57:16;;;;;;;6.53;4.88;;;;;;;;;;5012674;28;20088;-76
2023/12/15 02:59:42;;;;;;;7.15;5.72;;;;;;;;;;5011011;28;20034;-76
2023/12/15 03:02:08;;;;;;;9.45;6.50;;;;;;;;;;4994806;28;20026;-77
2023/12/15 03:04:37;;;;;;;8.10;5.85;;;;;;;;;;5014358;28;20034;-77
2023/12/15 03:07:03;;;;;;;10.63;6.97;;;;;;;;;;5000152;28;20037;-76
2023/12/15 03:09:29;;;;;;;10.57;6.88;;;;;;;;;;4996414;28;20030;-75
2023/12/15 03:11:55;;;;;;;9.00;5.97;;;;;;;;;;4996718;28;20010;-77
2023/12/15 03:14:21;;;;;;;8.88;6.10;;;;;;;;;;4998150;28;20030;-76
2023/12/15 03:16:48;;;;;;;8.68;5.80;;;;;;;;;;5009078;28;20025;-76
2023/12/15 03:19:14;;;;;;;8.95;6.15;;;;;;;;;;5010457;28;20042;-75
2023/12/15 03:21:40;;;;;;;8.80;5.95;;;;;;;;;;5009334;28;20071;-76
2023/12/15 03:24:09;;;;;;;10.68;6.68;;;;;;;;;;5010036;28;20108;-75
2023/12/15 03:26:35;;;;;;;10.20;5.82;;;;;;;;;;4997647;28;20034;-76
2023/12/15 03:29:01;;;;;;;13.00;7.47;;;;;;;;;;5007425;28;20026;-77
2023/12/15 03:31:27;;;;;;;10.40;6.65;;;;;;;;;;5002152;28;20106;-77
2023/12/15 03:33:54;;;;;;;10.60;6.78;;;;;;;;;;5015506;28;20030;-77
2023/12/15 03:36:20;;;;;;;11.05;6.68;;;;;;;;;;4997715;28;20023;-75
2023/12/15 03:38:46;;;;;;;10.90;7.18;;;;;;;;;;4996755;28;20029;-77
2023/12/15 03:41:12;;;;;;;11.73;6.82;;;;;;;;;;4994919;28;20025;-76
2023/12/15 03:43:38;;;;;;;10.45;7.00;;;;;;;;;;4994246;28;20466;-76
2023/12/15 03:46:05;;;;;;;8.27;6.15;;;;;;;;;;4994378;28;20026;-77
2023/12/15 03:48:31;;;;;;;10.68;7.43;;;;;;;;;;4994376;28;20023;-76
2023/12/15 03:51:00;;;;;;;12.20;7.00;;;;;;;;;;5010123;28;20027;-77
2023/12/15 03:53:26;;;;;;;9.13;6.35;;;;;;;;;;4997617;28;20140;-76
2023/12/15 03:55:52;;;;;;;9.32;7.05;;;;;;;;;;4995271;28;20343;-76
2023/12/15 03:58:19;;;;;;;9.48;7.20;;;;;;;;;;4995139;28;20096;-77
2023/12/15 04:00:46;;;;;;;12.15;6.85;;;;;;;;;;5009705;28;20030;-77
2023/12/15 04:03:12;;;;;;;9.70;6.70;;;;;;;;;;4994891;28;20473;-76
2023/12/15 04:05:38;;;;;;;10.65;7.22;;;;;;;;;;5009323;28;20033;-77
2023/12/15 04:08:04;;;;;;;11.35;7.45;;;;;;;;;;4994963;28;20026;-77
2023/12/15 04:10:30;;;;;;;11.25;7.80;;;;;;;;;;4993133;28;20014;-76
2023/12/15 04:12:56;;;;;;;11.65;7.70;;;;;;;;;;4996967;28;20018;-78
2023/12/15 04:15:22;;;;;;;10.50;7.18;;;;;;;;;;5001380;28;20481;-77
2023/12/15 04:17:49;;;;;;;10.48;7.65;;;;;;;;;;5002265;28;20388;-79
2023/12/15 04:20:15;;;;;;;12.60;7.72;;;;;;;;;;5002978;28;20030;-80
2023/12/15 04:22:41;;;;;;;11.10;6.97;;;;;;;;;;5002999;28;20453;-80
2023/12/15 04:25:07;;;;;;;11.57;7.72;;;;;;;;;;5001808;28;20032;-79
2023/12/15 04:27:34;;;;;;;11.27;7.28;;;;;;;;;;5011020;28;20033;-80
2023/12/15 04:30:00;;;;;;;11.55;7.47;;;;;;;;;;5003684;28;20081;-80
2023/12/15 04:32:26;;;;;;;13.07;8.10;;;;;;;;;;5003371;28;20049;-79
2023/12/15 04:34:52;;;;;;;14.43;6.75;;;;;;;;;;5000607;28;20045;-79
2023/12/15 04:37:18;;;;;;;10.05;6.47;;;;;;;;;;5002080;28;20030;-78
2023/12/15 04:39:46;;;;;;;13.30;7.90;;;;;;;;;;4999211;28;20018;-77
2023/12/15 04:42:12;;;;;;;12.40;7.45;;;;;;;;;;4994834;28;20022;-77
2023/12/15 04:44:38;;;;;;;10.18;7.40;;;;;;;;;;5001351;28;20023;-78
2023/12/15 04:47:05;;;;;;;10.43;7.10;;;;;;;;;;4995336;28;20454;-78
2023/12/15 04:49:31;;;;;;;11.50;7.72;;;;;;;;;;5003731;28;20030;-78
2023/12/15 04:51:59;;;;;;;14.25;8.43;;;;;;;;;;4999268;28;20050;-78
2023/12/15 04:54:25;;;;;;;12.70;8.20;;;;;;;;;;5013726;28;20033;-78
2023/12/15 04:56:51;;;;;;;14.15;7.32;;;;;;;;;;4997599;28;20026;-78
2023/12/15 04:59:17;;;;;;;12.32;7.72;;;;;;;;;;4996462;28;20030;-77
2023/12/15 05:01:44;;;;;;;12.93;7.20;;;;;;;;;;4997346;28;20139;-79
2023/12/15 05:04:10;;;;;;;13.70;8.32;;;;;;;;;;4995278;28;20032;-78
2023/12/15 05:06:36;;;;;;;9.73;6.82;;;;;;;;;;5006611;28;20030;-79
2023/12/15 05:09:08;;;;;;;11.48;7.38;;;;;;;;;;4996178;28;20022;-79
2023/12/15 05:11:35;;;;;;;11.13;7.50;;;;;;;;;;4993749;28;20021;-79
2023/12/15 05:14:01;;;;;;;11.52;7.03;;;;;;;;;;5010950;28;20019;-80
2023/12/15 05:16:28;;;;;;;11.43;7.90;;;;;;;;;;4996745;28;20438;-80
2023/12/15 05:18:54;;;;;;;10.20;6.97;;;;;;;;;;5004878;28;20068;-79
2023/12/15 05:21:20;;;;;;;12.30;7.57;;;;;;;;;;5019143;28;20034;-77
2023/12/15 05:23:46;;;;;;;9.82;6.63;;;;;;;;;;4994475;28;20112;-76
2023/12/15 05:26:13;;;;;;;11.77;7.63;;;;;;;;;;4994908;28;20050;-78
2023/12/15 05:28:39;;;;;;;9.82;6.95;;;;;;;;;;4997796;28;20030;-78
2023/12/15 05:31:05;;;;;;;9.95;7.28;;;;;;;;;;5009082;28;20033;-78
2023/12/15 05:33:31;;;;;;;8.43;6.35;;;;;;;;;;4996254;28;20058;-78
2023/12/15 05:35:57;;;;;;;9.93;7.05;;;;;;;;;;5011825;28;20018;-77
2023/12/15 05:38:23;;;;;;;11.10;6.93;;;;;;;;;;4996754;28;20031;-77
2023/12/15 05:40:49;;;;;;;11.57;7.25;;;;;;;;;;4995109;28;20414;-77
2023/12/15 05:43:15;;;;;;;11.73;7.00;;;;;;;;;;4991667;28;20129;-77
2023/12/15 05:45:41;;;;;;;11.68;7.05;;;;;;;;;;4997032;28;20033;-77
2023/12/15 05:48:07;;;;;;;9.82;6.25;;;;;;;;;;5001369;28;20093;-77
2023/12/15 05:50:33;;;;;;;10.57;6.55;;;;;;;;;;4986354;28;20363;-76
2023/12/15 05:52:59;;;;;;;10.20;6.20;;;;;;;;;;4993100;28;20040;-77
2023/12/15 05:55:25;;;;;;;12.50;7.43;;;;;;;;;;4996624;28;20329;-77
2023/12/15 05:57:52;;;;;;;8.93;6.03;;;;;;;;;;4996717;28;20026;-78
2023/12/15 06:00:18;;;;;;;30.40;12.50;;;;;;;;;;4995840;28;20134;-78
2023/12/15 06:02:50;;;;;;;14.70;8.57;;;;;;;;;;4997291;28;20034;-78
2023/12/15 06:05:16;;;;;;;11.05;6.43;;;;;;;;;;4998580;28;20073;-77
2023/12/15 06:07:42;;;;;;;11.50;5.95;;;;;;;;;;5009533;28;20107;-77
2023/12/15 06:10:10;;;;;;;12.40;6.72;;;;;;;;;;4997130;28;20041;-77
2023/12/15 06:12:36;;;;;;;8.98;5.75;;;;;;;;;;5000298;28;20027;-77
2023/12/15 06:15:02;;;;;;;9.93;5.45;;;;;;;;;;5004906;28;20030;-78
2023/12/15 06:17:28;;;;;;;10.82;6.28;;;;;;;;;;4988790;28;20026;-77
2023/12/15 06:19:54;;;;;;;11.57;6.38;;;;;;;;;;5010818;28;20477;-77
2023/12/15 06:22:20;;;;;;;9.95;5.60;;;;;;;;;;4998158;28;20381;-77
2023/12/15 06:24:47;;;;;;;10.88;5.75;;;;;;;;;;4997681;28;20338;-77
2023/12/15 06:27:13;;;;;;;9.98;5.72;;;;;;;;;;4997787;28;20109;-77
2023/12/15 06:29:40;;;;;;;12.52;6.47;;;;;;;;;;5013177;28;20030;-77
2023/12/15 06:32:42;;;;;;;10.63;5.88;;;;;;;;;;4998106;28;20014;-76
2023/12/15 06:35:08;;;;;;;9.52;5.00;;;;;;;;;;4998095;28;20110;-79
2023/12/15 06:37:34;;;;;;;9.52;5.07;;;;;;;;;;5021938;28;20029;-79
2023/12/15 06:40:00;;;;;;;7.07;4.57;;;;;;;;;;5013922;28;20433;-77
2023/12/15 06:42:26;;;;;;;7.45;4.63;;;;;;;;;;4996731;28;20023;-77
2023/12/15 06:44:52;;;;;;;6.65;3.88;;;;;;;;;;5006257;28;20033;-78
2023/12/15 06:47:18;;;;;;;7.03;4.38;;;;;;;;;;5002626;28;20089;-77
2023/12/15 06:49:44;;;;;;;7.57;4.60;;;;;;;;;;5000743;28;20038;-77
2023/12/15 06:52:11;;;;;;;6.80;4.22;;;;;;;;;;4999478;28;20022;-76
2023/12/15 06:54:40;;;;;;;5.03;3.60;;;;;;;;;;4997704;28;20033;-79
2023/12/15 06:57:06;;;;;;;5.65;3.90;;;;;;;;;;5017657;28;20133;-77
2023/12/15 06:59:32;;;;;;;6.43;4.18;;;;;;;;;;5015046;28;20058;-77
2023/12/15 07:01:58;;;;;;;8.15;4.57;;;;;;;;;;5017464;28;20080;-78
2023/12/15 07:04:24;;;;;;;6.97;4.20;;;;;;;;;;5002823;28;20089;-78
2023/12/15 07:06:50;;;;;;;6.45;3.70;;;;;;;;;;5000020;28;20109;-78
2023/12/15 07:09:16;;;;;;;8.05;4.20;;;;;;;;;;4998961;28;20030;-78
2023/12/15 07:11:42;;;;;;;6.60;4.13;;;;;;;;;;5015150;28;20424;-78
2023/12/15 07:14:09;;;;;;;5.78;3.58;;;;;;;;;;5014144;28;20022;-77
2023/12/15 07:16:35;;;;;;;4.78;3.45;;;;;;;;;;5023320;28;20023;-77
2023/12/15 07:19:01;;;;;;;5.55;3.22;;;;;;;;;;4998974;28;20025;-77
2023/12/15 07:21:27;;;;;;;3.00;2.70;;;;;;;;;;5000278;28;20106;-78
2023/12/15 07:23:53;;;;;;;3.85;3.05;;;;;;;;;;4997306;28;20038;-76
2023/12/15 07:26:20;;;;;;;3.35;2.67;;;;;;;;;;4996641;28;20064;-76
2023/12/15 07:28:46;;;;;;;3.30;2.42;;;;;;;;;;4996645;28;20038;-77
2023/12/15 07:31:12;;;;;;;4.30;2.80;;;;;;;;;;5011776;28;20030;-78
2023/12/15 07:33:38;;;;;;;4.90;2.83;;;;;;;;;;4979798;28;20033;-77
2023/12/15 07:36:04;;;;;;;3.97;2.70;;;;;;;;;;4999633;28;20042;-77
2023/12/15 07:38:30;;;;;;;4.93;3.03;;;;;;;;;;5021348;28;20030;-78
2023/12/15 07:40:56;;;;;;;3.70;2.80;;;;;;;;;;4999862;28;20041;-77
2023/12/15 07:43:26;;;;;;;4.82;2.65;;;;;;;;;;4993401;28;20090;-77
2023/12/15 07:45:52;;;;;;;5.88;3.35;;;;;;;;;;5014658;28;20077;-77
2023/12/15 07:48:18;;;;;;;5.20;3.17;;;;;;;;;;5001398;28;20057;-77
2023/12/15 07:50:48;;;;;;;6.93;4.00;;;;;;;;;;5000638;28;20118;-78
2023/12/15 07:53:17;;;;;;;5.55;3.17;;;;;;;;;;4999752;28;20015;-77
2023/12/15 07:55:43;;;;;;;4.00;3.22;;;;;;;;;;5011823;28;20396;-77
2023/12/15 07:58:12;;;;;;;5.63;3.35;;;;;;;;;;4997559;28;20140;-77
2023/12/15 08:00:38;;;;;;;7.70;4.20;;;;;;;;;;5004030;28;20485;-77
2023/12/15 08:03:04;;;;;;;6.38;3.78;;;;;;;;;;5006922;28;20041;-78
2023/12/15 08:05:31;;;;;;;6.70;4.30;;;;;;;;;;5020570;28;20037;-77
2023/12/15 08:07:58;;;;;;;8.80;5.05;;;;;;;;;;5008560;28;20022;-78
2023/12/15 08:10:26;;;;;;;9.32;5.22;;;;;;;;;;5005476;28;20042;-77
2023/12/15 08:12:53;;;;;;;6.32;4.43;;;;;;;;;;5015692;28;20065;-77
2023/12/15 08:15:19;;;;;;;8.63;4.80;;;;;;;;;;5009595;28;20070;-76
2023/12/15 08:17:45;;;;;;;5.55;3.55;;;;;;;;;;5002998;28;20071;-77
2023/12/15 08:20:11;;;;;;;8.82;4.75;;;;;;;;;;5005494;28;20022;-76
2023/12/15 08:22:37;;;;;;;7.05;3.83;;;;;;;;;;5006995;28;20015;-77
2023/12/15 08:25:03;;;;;;;7.15;4.40;;;;;;;;;;5002974;28;20057;-78
2023/12/15 08:27:29;;;;;;;6.90;4.25;;;;;;;;;;5018984;28;20034;-77
2023/12/15 08:29:57;;;;;;;5.05;3.63;;;;;;;;;;4999317;28;20027;-77
2023/12/15 08:32:23;;;;;;;5.90;3.55;;;;;;;;;;4997819;28;20209;-77
2023/12/15 08:34:49;;;;;;;6.68;4.50;;;;;;;;;;5012208;28;20138;-76
2023/12/15 08:37:16;;;;;;;7.88;5.60;;;;;;;;;;5016008;28;20033;-75
2023/12/15 08:39:42;;;;;;;9.23;5.18;;;;;;;;;;5015503;28;20027;-76
2023/12/15 08:42:08;;;;;;;7.22;4.28;;;;;;;;;;5030037;28;20030;-75
2023/12/15 08:44:34;;;;;;;9.65;5.97;;;;;;;;;;5006526;28;20030;-76
2023/12/15 08:47:00;;;;;;;10.40;5.90;;;;;;;;;;5010239;28;20045;-77
2023/12/15 08:49:27;;;;;;;7.95;5.53;;;;;;;;;;5009881;28;20110;-76
2023/12/15 08:51:53;;;;;;;10.20;5.13;;;;;;;;;;5000430;28;20054;-77
2023/12/15 08:54:19;;;;;;;7.32;4.90;;;;;;;;;;5002187;28;20030;-77
2023/12/15 08:56:45;;;;;;;8.50;5.03;;;;;;;;;;5004501;28;20065;-77
2023/12/15 08:59:11;;;;;;;8.20;4.95;;;;;;;;;;5028791;28;20026;-76
2023/12/15 09:01:37;;;;;;;6.82;4.90;;;;;;;;;;5003346;28;20030;-77
2023/12/15 09:04:04;;;;;;;6.30;4.60;;;;;;;;;;4999861;28;20085;-77
2023/12/15 09:06:30;;;;;;;6.00;4.13;;;;;;;;;;5000241;28;20038;-78
2023/12/15 09:08:56;;;;;;;5.03;3.42;;;;;;;;;;5000440;28;20076;-77
2023/12/15 09:11:22;;;;;;;4.78;3.25;;;;;;;;;;4999837;28;20079;-78
2023/12/15 09:13:48;;;;;;;4.97;3.58;;;;;;;;;;4999300;28;20075;-76
2023/12/15 09:16:14;;;;;;;5.10;3.55;;;;;;;;;;4999037;28;20026;-76
2023/12/15 09:18:40;;;;;;;5.20;3.80;;;;;;;;;;4990941;28;20109;-77
2023/12/15 09:21:07;;;;;;;6.20;4.25;;;;;;;;;;4995237;28;20069;-77
2023/12/15 09:23:33;;;;;;;8.13;4.50;;;;;;;;;;5003998;28;20037;-77
2023/12/15 09:25:59;;;;;;;6.85;4.50;;;;;;;;;;4996667;28;20386;-77
2023/12/15 09:28:25;;;;;;;6.63;4.47;;;;;;;;;;4998815;28;20026;-78
2023/12/15 09:30:51;;;;;;;5.85;3.70;;;;;;;;;;5002974;28;20092;-77
2023/12/15 09:33:18;;;;;;;6.43;4.40;;;;;;;;;;5009324;28;20042;-78
2023/12/15 09:35:44;;;;;;;7.25;3.92;;;;;;;;;;5008469;28;20295;-78
2023/12/15 09:38:10;;;;;;;7.32;5.32;;;;;;;;;;5007563;28;20037;-79
2023/12/15 09:40:37;;;;;;;7.82;4.75;;;;;;;;;;5009379;28;20361;-76
2023/12/15 09:43:04;;;;;;;7.00;4.43;;;;;;;;;;5008560;28;20038;-78
2023/12/15 09:45:30;;;;;;;5.07;3.70;;;;;;;;;;5005551;28;20030;-76
2023/12/15 09:47:57;;;;;;;5.18;3.78;;;;;;;;;;5011317;28;20520;-77
2023/12/15 09:50:25;;;;;;;5.65;3.88;;;;;;;;;;5006478;28;20077;-78
2023/12/15 09:52:52;;;;;;;7.65;4.80;;;;;;;;;;5022359;28;20034;-76
2023/12/15 09:55:18;;;;;;;7.85;4.75;;;;;;;;;;5008054;28;20085;-77
2023/12/15 09:57:44;;;;;;;5.28;4.13;;;;;;;;;;5007951;28;20085;-77
2023/12/15 10:00:11;;;;;;;6.10;4.35;;;;;;;;;;5009371;28;20031;-78
2023/12/15 10:02:37;;;;;;;7.63;5.00;;;;;;;;;;5007928;28;20074;-77
2023/12/15 10:05:03;;;;;;;8.68;5.32;;;;;;;;;;5004990;28;20014;-77
2023/12/15 10:07:29;;;;;;;6.10;4.35;;;;;;;;;;5009337;28;20503;-76
2023/12/15 10:09:56;;;;;;;9.07;5.47;;;;;;;;;;5009566;28;20034;-77
2023/12/15 10:12:22;;;;;;;6.43;4.72;;;;;;;;;;5020314;28;20046;-77
2023/12/15 10:14:48;;;;;;;6.43;4.35;;;;;;;;;;5007463;28;20022;-76
2023/12/15 10:17:14;;;;;;;5.65;3.88;;;;;;;;;;5001516;28;20153;-76
2023/12/15 10:19:40;;;;;;;5.00;3.80;;;;;;;;;;4998388;28;20022;-77
2023/12/15 10:22:07;;;;;;;4.28;3.30;;;;;;;;;;4999002;28;20121;-77
2023/12/15 10:24:33;;;;;;;6.63;4.68;;;;;;;;;;5016111;23;20428;-75
2023/12/15 10:27:02;;;;;;;5.25;4.07;;;;;;;;;;5017236;28;20034;-76
2023/12/15 10:29:31;;;;;;;6.30;3.72;;;;;;;;;;5019370;28;20050;-76
2023/12/15 10:31:58;;;;;;;6.13;3.75;;;;;;;;;;5026489;28;20018;-76
2023/12/15 10:34:25;;;;;;;5.47;3.88;;;;;;;;;;5034070;28;20037;-75
2023/12/15 10:36:51;;;;;;;6.80;4.55;;;;;;;;;;5036373;28;20065;-75
2023/12/15 10:39:18;;;;;;;5.85;4.20;;;;;;;;;;5023660;28;20445;-75
2023/12/15 10:41:44;;;;;;;6.20;4.70;;;;;;;;;;5024785;28;20021;-76
2023/12/15 10:44:14;;;;;;;5.63;4.13;;;;;;;;;;5022404;28;20033;-76
2023/12/15 10:46:46;;;;;;;5.30;4.30;;;;;;;;;;5011135;28;20040;-76
2023/12/15 10:49:13;;;;;;;7.07;4.25;;;;;;;;;;5023007;28;20045;-75
2023/12/15 10:51:39;;;;;;;6.78;4.60;;;;;;;;;;5017707;28;20124;-76
2023/12/15 10:54:06;;;;;;;5.97;4.75;;;;;;;;;;5017865;28;20025;-76
2023/12/15 10:56:32;;;;;;;5.97;4.15;;;;;;;;;;5016594;28;20054;-75
2023/12/15 10:58:59;;;;;;;5.53;4.30;;;;;;;;;;5016135;28;20033;-76
2023/12/15 11:01:27;;;;;;;7.60;5.35;;;;;;;;;;5015756;28;20113;-75
2023/12/15 11:03:53;;;;;;;7.13;4.85;;;;;;;;;;5015590;28;20399;-76
2023/12/15 11:06:30;;;;;;;5.95;4.68;;;;;;;;;;5016064;28;20497;-75
2023/12/15 11:09:07;;;;;;;5.60;4.15;;;;;;;;;;5014074;28;20048;-75
2023/12/15 11:11:33;;;;;;;8.68;5.85;;;;;;;;;;5016141;28;20026;-75
2023/12/15 11:14:01;;;;;;;8.23;5.13;;;;;;;;;;5018317;28;20040;-76
2023/12/15 11:16:28;;;;;;;7.13;4.85;;;;;;;;;;5023240;28;20496;-76
2023/12/15 11:18:55;;;;;;;7.00;4.57;;;;;;;;;;5014217;28;20480;-75
2023/12/15 11:21:21;;;;;;;6.93;5.00;;;;;;;;;;5014856;28;20040;-76
2023/12/15 11:24:04;;;;;;;5.88;4.22;;;;;;;;;;5013969;28;20053;-76
2023/12/15 11:26:31;;;;;;;8.77;5.35;;;;;;;;;;5015992;28;20030;-75
2023/12/15 11:29:02;;;;;;;6.28;4.82;;;;;;;;;;5018467;28;20032;-76
2023/12/15 11:31:28;;;;;;;7.35;5.10;;;;;;;;;;5015314;28;20021;-76
2023/12/15 11:33:55;;;;;;;5.95;4.20;;;;;;;;;;5014153;28;20550;-77
2023/12/15 11:36:21;;;;;;;6.93;4.38;;;;;;;;;;5014454;28;20030;-76
2023/12/15 11:38:50;;;;;;;6.43;4.60;;;;;;;;;;5014161;28;20040;-76
2023/12/15 11:41:18;;;;;;;7.18;4.88;;;;;;;;;;5020339;28;20065;-75
2023/12/15 11:43:44;;;;;;;7.00;5.07;;;;;;;;;;5014052;28;20052;-76
2023/12/15 11:46:11;;;;;;;5.82;4.22;;;;;;;;;;5018877;28;20096;-76
2023/12/15 11:48:37;;;;;;;5.97;4.38;;;;;;;;;;5013784;28;20149;-76
2023/12/15 11:51:03;;;;;;;4.05;3.60;;;;;;;;;;5013228;28;20022;-75
2023/12/15 11:53:32;;;;;;;4.50;3.70;;;;;;;;;;5018908;28;20030;-76
2023/12/15 11:56:00;;;;;;;4.60;3.40;;;;;;;;;;5015569;28;20468;-76
2023/12/15 11:58:27;;;;;;;4.90;3.92;;;;;;;;;;5015062;28;20108;-77
2023/12/15 12:00:53;;;;;;;7.53;4.30;;;;;;;;;;5015085;28;20022;-76
2023/12/15 12:03:20;;;;;;;4.65;3.42;;;;;;;;;;5013226;28;20468;-76
2023/12/15 12:05:47;;;;;;;5.38;4.10;;;;;;;;;;5014092;28;20161;-79
2023/12/15 12:08:14;;;;;;;4.55;3.60;;;;;;;;;;5015022;28;20033;-76
2023/12/15 12:10:40;;;;;;;4.70;3.55;;;;;;;;;;5017730;28;20026;-76
2023/12/15 12:13:10;;;;;;;5.22;3.65;;;;;;;;;;5019469;28;20046;-76
2023/12/15 12:15:49;;;;;;;7.38;4.97;;;;;;;;;;5014069;28;20186;-76
2023/12/15 12:18:15;;;;;;;5.78;4.50;;;;;;;;;;5015957;28;20030;-76
2023/12/15 12:20:41;;;;;;;6.05;4.43;;;;;;;;;;5015275;28;20025;-76
2023/12/15 12:23:07;;;;;;;5.88;4.13;;;;;;;;;;5015398;28;20377;-76
2023/12/15 12:25:34;;;;;;;4.43;3.72;;;;;;;;;;5015336;28;20030;-76
2023/12/15 12:28:00;;;;;;;5.97;4.10;;;;;;;;;;5015426;28;20022;-76
2023/12/15 12:30:28;;;;;;;3.75;3.28;;;;;;;;;;5014594;28;20026;-76
2023/12/15 12:32:54;;;;;;;4.70;3.05;;;;;;;;;;5013724;28;20026;-76
2023/12/15 12:35:20;;;;;;;3.55;2.90;;;;;;;;;;5014336;28;20030;-75
2023/12/15 12:37:48;;;;;;;4.43;2.80;;;;;;;;;;5014947;28;20025;-75
2023/12/15 12:40:14;;;;;;;5.13;3.10;;;;;;;;;;5013693;28;20030;-76
2023/12/15 12:42:40;;;;;;;4.22;3.58;;;;;;;;;;5013750;28;20025;-75
2023/12/15 12:45:07;;;;;;;4.43;3.28;;;;;;;;;;5019094;28;20018;-76
2023/12/15 12:47:37;;;;;;;4.82;3.60;;;;;;;;;;5014168;28;20026;-77
2023/12/15 12:50:04;;;;;;;3.22;2.65;;;;;;;;;;5015176;28;20024;-76
2023/12/15 12:52:30;;;;;;;4.30;3.10;;;;;;;;;;5020437;28;20035;-75
2023/12/15 12:54:56;;;;;;;3.85;2.85;;;;;;;;;;5014074;28;20522;-75
2023/12/15 12:57:28;;;;;;;4.00;2.85;;;;;;;;;;5014275;28;20038;-76
2023/12/15 12:59:54;;;;;;;4.55;3.58;;;;;;;;;;5015116;28;20018;-75
2023/12/15 13:02:20;;;;;;;7.30;5.13;;;;;;;;;;5014899;28;20037;-76
2023/12/15 13:04:46;;;;;;;5.82;4.10;;;;;;;;;;5012568;28;20022;-76
2023/12/15 13:07:13;;;;;;;6.00;4.28;;;;;;;;;;5014672;28;20077;-75
2023/12/15 13:09:39;;;;;;;6.70;4.45;;;;;;;;;;5015447;28;20026;-76
2023/12/15 13:12:05;;;;;;;6.95;3.90;;;;;;;;;;5015682;28;20107;-76
2023/12/15 13:14:31;;;;;;;8.05;4.68;;;;;;;;;;5024548;28;20030;-74
2023/12/15 13:16:57;;;;;;;6.82;4.63;;;;;;;;;;5013691;28;20473;-75
2023/12/15 13:19:25;;;;;;;5.38;4.13;;;;;;;;;;5013539;28;20069;-77
2023/12/15 13:21:51;;;;;;;4.80;4.00;;;;;;;;;;5014702;28;20101;-75
2023/12/15 13:24:17;;;;;;;5.28;3.97;;;;;;;;;;5013987;28;20033;-77
2023/12/15 13:26:43;;;;;;;4.05;3.33;;;;;;;;;;5013720;28;20026;-75
2023/12/15 13:29:09;;;;;;;6.75;4.85;;;;;;;;;;5014034;28;20030;-76
2023/12/15 13:31:35;;;;;;;6.45;5.07;;;;;;;;;;5012869;28;20046;-77
2023/12/15 13:34:01;;;;;;;6.38;4.45;;;;;;;;;;5013777;28;20017;-76
2023/12/15 13:36:27;;;;;;;5.20;4.10;;;;;;;;;;5012826;28;20029;-76
2023/12/15 13:38:53;;;;;;;4.28;3.50;;;;;;;;;;5013874;28;20026;-76
2023/12/15 13:41:20;;;;;;;4.40;3.30;;;;;;;;;;5015661;28;20062;-75
2023/12/15 13:43:46;;;;;;;3.67;2.88;;;;;;;;;;5030000;28;20083;-76
2023/12/15 13:46:12;;;;;;;3.30;2.53;;;;;;;;;;5034782;28;20034;-76
2023/12/15 13:48:39;;;;;;;3.42;2.80;;;;;;;;;;5036148;28;20030;-75
2023/12/15 13:51:06;;;;;;;2.88;2.47;;;;;;;;;;5038165;28;20045;-74
2023/12/15 13:53:32;;;;;;;3.72;2.15;;;;;;;;;;5033868;28;20029;-75
2023/12/15 13:55:59;;;;;;;4.32;3.40;;;;;;;;;;5030282;28;20037;-75
2023/12/15 13:58:25;;;;;;;6.80;3.95;;;;;;;;;;5035788;28;20014;-74
2023/12/15 14:00:51;;;;;;;7.10;4.50;;;;;;;;;;5022535;28;20032;-76
2023/12/15 14:03:17;;;;;;;6.30;4.78;;;;;;;;;;5023920;28;20030;-75
2023/12/15 14:05:43;;;;;;;5.07;3.85;;;;;;;;;;5018261;28;20113;-75
2023/12/15 14:08:09;;;;;;;5.72;4.15;;;;;;;;;;5019146;28;20033;-76
2023/12/15 14:10:35;;;;;;;5.90;4.10;;;;;;;;;;5021174;28;21352;-76
2023/12/15 14:13:03;;;;;;;4.57;3.58;;;;;;;;;;5021190;28;20025;-74
2023/12/15 14:15:29;;;;;;;5.53;4.20;;;;;;;;;;5020889;28;20395;-74
2023/12/15 14:17:55;;;;;;;5.35;3.78;;;;;;;;;;5019208;28;20022;-74
2023/12/15 14:20:21;;;;;;;4.70;3.47;;;;;;;;;;5020677;28;20022;-75
2023/12/15 14:22:47;;;;;;;5.78;4.30;;;;;;;;;;5007445;28;20056;-75
2023/12/15 14:25:14;;;;;;;6.45;4.60;;;;;;;;;;5018809;28;20179;-75
2023/12/15 14:27:41;;;;;;;6.00;4.55;;;;;;;;;;5016695;28;20037;-75
2023/12/15 14:30:13;;;;;;;5.05;3.75;;;;;;;;;;5017077;28;20021;-75
2023/12/15 14:32:39;;;;;;;5.18;3.13;;;;;;;;;;5017746;28;20026;-76
2023/12/15 14:35:06;;;;;;;3.30;2.90;;;;;;;;;;5017640;28;20217;-76